sensor_id;sensor_type;location;lat;lon;timestamp;pressure;altitude;pressure_sealevel;temperature;humidity
6198;BME280;3132;42.622;23.328;2024-02-15T00:01:06;93109.25;;;3.69;73.72
6198;BME280;3132;42.622;23.328;2024-02-15T00:09:47;93136.56;;;3.23;76.25
6198;BME280;3132;42.622;23.328;2024-02-15T00:12:12;93117.34;;;3.19;76.02
6198;BME280;3132;42.622;23.328;2024-02-15T00:14:38;93132.66;;;3.33;75.62
6198;BME280;3132;42.622;23.328;2024-02-15T00:17:03;93089.28;;;3.00;75.33
6198;BME280;3132;42.622;23.328;2024-02-15T00:19:29;93107.81;;;3.20;76.18
6198;BME280;3132;42.622;23.328;2024-02-15T00:21:55;93128.81;;;3.35;74.72
6198;BME280;3132;42.622;23.328;2024-02-15T00:24:22;93103.34;;;3.15;75.38
6198;BME280;3132;42.622;23.328;2024-02-15T00:26:47;93128.59;;;3.25;75.21
6198;BME280;3132;42.622;23.328;2024-02-15T00:29:13;93131.09;;;3.43;75.85
6198;BME280;3132;42.622;23.328;2024-02-15T00:31:38;93131.84;;;3.20;75.29
6198;BME280;3132;42.622;23.328;2024-02-15T00:34:05;93127.00;;;3.24;75.88
6198;BME280;3132;42.622;23.328;2024-02-15T00:36:30;93105.13;;;3.15;74.95
6198;BME280;3132;42.622;23.328;2024-02-15T00:38:57;93131.03;;;3.20;75.19
6198;BME280;3132;42.622;23.328;2024-02-15T00:41:22;93112.72;;;3.10;75.52
6198;BME280;3132;42.622;23.328;2024-02-15T00:43:48;93137.00;;;3.32;75.70
6198;BME280;3132;42.622;23.328;2024-02-15T00:46:15;93144.53;;;3.33;75.36
6198;BME280;3132;42.622;23.328;2024-02-15T00:48:41;93132.41;;;3.34;75.33
6198;BME280;3132;42.622;23.328;2024-02-15T00:51:06;93115.56;;;3.31;75.57
6198;BME280;3132;42.622;23.328;2024-02-15T00:53:32;93144.31;;;3.35;75.16
6198;BME280;3132;42.622;23.328;2024-02-15T00:55:57;93143.19;;;3.31;75.27
6198;BME280;3132;42.622;23.328;2024-02-15T00:58:23;93130.94;;;3.26;75.81
6198;BME280;3132;42.622;23.328;2024-02-15T01:00:49;93122.72;;;3.06;75.27
6198;BME280;3132;42.622;23.328;2024-02-15T01:03:15;93140.47;;;3.26;75.12
6198;BME280;3132;42.622;23.328;2024-02-15T01:05:40;93141.72;;;3.23;75.81
6198;BME280;3132;42.622;23.328;2024-02-15T01:08:06;93125.31;;;3.18;77.35
6198;BME280;3132;42.622;23.328;2024-02-15T01:10:31;93126.69;;;3.20;75.23
6198;BME280;3132;42.622;23.328;2024-02-15T01:12:56;93129.81;;;3.22;75.67
6198;BME280;3132;42.622;23.328;2024-02-15T01:15:22;93134.06;;;3.17;75.96
6198;BME280;3132;42.622;23.328;2024-02-15T01:17:48;93142.25;;;3.14;75.84
6198;BME280;3132;42.622;23.328;2024-02-15T01:20:13;93134.66;;;3.19;76.00
6198;BME280;3132;42.622;23.328;2024-02-15T01:22:38;93132.88;;;3.31;75.81
6198;BME280;3132;42.622;23.328;2024-02-15T01:25:04;93129.72;;;3.29;77.26
6198;BME280;3132;42.622;23.328;2024-02-15T01:27:29;93130.34;;;3.13;75.90
6198;BME280;3132;42.622;23.328;2024-02-15T01:29:58;93127.00;;;3.24;76.35
6198;BME280;3132;42.622;23.328;2024-02-15T01:32:23;93128.59;;;3.25;76.01
6198;BME280;3132;42.622;23.328;2024-02-15T01:34:49;93131.72;;;3.27;75.32
6198;BME280;3132;42.622;23.328;2024-02-15T01:37:16;93126.78;;;3.14;75.55
6198;BME280;3132;42.622;23.328;2024-02-15T01:39:42;93134.25;;;3.04;76.46
6198;BME280;3132;42.622;23.328;2024-02-15T01:42:07;93135.34;;;2.96;76.55
6198;BME280;3132;42.622;23.328;2024-02-15T01:44:33;93126.94;;;3.01;76.28
6198;BME280;3132;42.622;23.328;2024-02-15T01:46:59;93135.28;;;3.14;75.95
6198;BME280;3132;42.622;23.328;2024-02-15T01:49:27;93118.78;;;3.04;77.09
6198;BME280;3132;42.622;23.328;2024-02-15T01:51:55;93131.97;;;2.96;76.41
6198;BME280;3132;42.622;23.328;2024-02-15T01:54:22;93114.50;;;2.98;76.26
6198;BME280;3132;42.622;23.328;2024-02-15T01:56:48;93127.88;;;3.18;77.06
6198;BME280;3132;42.622;23.328;2024-02-15T01:59:15;93134.94;;;3.11;77.32
6198;BME280;3132;42.622;23.328;2024-02-15T02:01:41;93130.16;;;3.26;76.09
6198;BME280;3132;42.622;23.328;2024-02-15T02:04:07;93130.72;;;2.87;76.69
6198;BME280;3132;42.622;23.328;2024-02-15T02:06:33;93127.66;;;2.78;77.37
6198;BME280;3132;42.622;23.328;2024-02-15T02:08:58;93140.72;;;2.95;76.71
6198;BME280;3132;42.622;23.328;2024-02-15T02:11:24;93139.91;;;2.83;77.20
6198;BME280;3132;42.622;23.328;2024-02-15T02:13:49;93109.41;;;2.80;77.54
6198;BME280;3132;42.622;23.328;2024-02-15T02:16:29;93119.28;;;2.83;77.66
6198;BME280;3132;42.622;23.328;2024-02-15T02:18:57;93138.41;;;3.05;76.29
6198;BME280;3132;42.622;23.328;2024-02-15T02:21:26;93118.84;;;2.86;76.43
6198;BME280;3132;42.622;23.328;2024-02-15T02:23:58;93145.75;;;2.90;76.44
6198;BME280;3132;42.622;23.328;2024-02-15T02:26:24;93140.84;;;3.00;76.26
6198;BME280;3132;42.622;23.328;2024-02-15T02:28:50;93135.44;;;2.90;76.88
6198;BME280;3132;42.622;23.328;2024-02-15T02:31:18;93132.31;;;2.88;76.79
6198;BME280;3132;42.622;23.328;2024-02-15T02:33:49;93128.56;;;2.84;76.28
6198;BME280;3132;42.622;23.328;2024-02-15T02:36:17;93136.16;;;2.97;77.61
6198;BME280;3132;42.622;23.328;2024-02-15T02:38:43;93124.22;;;2.84;75.91
6198;BME280;3132;42.622;23.328;2024-02-15T02:41:10;93155.09;;;3.02;75.89
6198;BME280;3132;42.622;23.328;2024-02-15T02:43:36;93147.00;;;2.99;76.17
6198;BME280;3132;42.622;23.328;2024-02-15T02:46:02;93142.78;;;3.04;75.80
6198;BME280;3132;42.622;23.328;2024-02-15T02:48:31;93143.47;;;3.11;75.03
6198;BME280;3132;42.622;23.328;2024-02-15T02:50:56;93150.97;;;3.13;75.90
6198;BME280;3132;42.622;23.328;2024-02-15T02:53:21;93154.06;;;2.92;75.49
6198;BME280;3132;42.622;23.328;2024-02-15T02:55:47;93152.06;;;2.94;76.58
6198;BME280;3132;42.622;23.328;2024-02-15T02:58:12;93134.75;;;2.83;76.05
6198;BME280;3132;42.622;23.328;2024-02-15T03:00:38;93153.53;;;3.01;75.76
6198;BME280;3132;42.622;23.328;2024-02-15T03:03:05;93155.22;;;2.78;76.01
6198;BME280;3132;42.622;23.328;2024-02-15T03:05:30;93152.06;;;2.76;76.09
6198;BME280;3132;42.622;23.328;2024-02-15T03:07:56;93136.91;;;2.68;77.41
6198;BME280;3132;42.622;23.328;2024-02-15T03:10:22;93155.81;;;2.80;76.46
6198;BME280;3132;42.622;23.328;2024-02-15T03:12:49;93154.88;;;2.74;76.64
6198;BME280;3132;42.622;23.328;2024-02-15T03:15:15;93150.16;;;2.71;76.58
6198;BME280;3132;42.622;23.328;2024-02-15T03:17:41;93144.63;;;2.68;76.84
6198;BME280;3132;42.622;23.328;2024-02-15T03:20:08;93149.72;;;2.74;77.17
6198;BME280;3132;42.622;23.328;2024-02-15T03:22:45;93163.75;;;2.78;77.15
6198;BME280;3132;42.622;23.328;2024-02-15T03:25:15;93169.66;;;2.97;76.86
6198;BME280;3132;42.622;23.328;2024-02-15T03:27:40;93161.94;;;2.79;76.78
6198;BME280;3132;42.622;23.328;2024-02-15T03:30:06;93158.97;;;2.64;76.87
6198;BME280;3132;42.622;23.328;2024-02-15T03:32:31;93168.91;;;2.78;77.93
6198;BME280;3132;42.622;23.328;2024-02-15T03:34:57;93146.78;;;2.71;77.75
6198;BME280;3132;42.622;23.328;2024-02-15T03:37:22;93166.88;;;2.80;77.32
6198;BME280;3132;42.622;23.328;2024-02-15T03:39:48;93158.84;;;2.59;77.01
6198;BME280;3132;42.622;23.328;2024-02-15T03:42:13;93148.25;;;2.49;77.51
6198;BME280;3132;42.622;23.328;2024-02-15T03:44:38;93160.44;;;2.60;77.78
6198;BME280;3132;42.622;23.328;2024-02-15T03:47:04;93158.69;;;2.72;77.45
6198;BME280;3132;42.622;23.328;2024-02-15T03:49:30;93164.63;;;2.72;77.63
6198;BME280;3132;42.622;23.328;2024-02-15T03:51:57;93147.03;;;2.51;78.94
6198;BME280;3132;42.622;23.328;2024-02-15T03:54:24;93158.84;;;2.59;79.31
6198;BME280;3132;42.622;23.328;2024-02-15T03:56:50;93162.63;;;2.56;79.11
6198;BME280;3132;42.622;23.328;2024-02-15T03:59:20;93162.13;;;2.48;80.19
6198;BME280;3132;42.622;23.328;2024-02-15T04:01:47;93165.72;;;2.47;80.05
6198;BME280;3132;42.622;23.328;2024-02-15T04:04:13;93162.56;;;2.45;79.42
6198;BME280;3132;42.622;23.328;2024-02-15T04:06:38;93144.53;;;2.45;79.83
6198;BME280;3132;42.622;23.328;2024-02-15T04:09:06;93137.25;;;2.42;78.78
6198;BME280;3132;42.622;23.328;2024-02-15T04:11:32;93162.72;;;2.50;78.79
6198;BME280;3132;42.622;23.328;2024-02-15T04:13:58;93108.94;;;2.24;79.05
6198;BME280;3132;42.622;23.328;2024-02-15T04:16:23;93155.84;;;2.44;78.51
6198;BME280;3132;42.622;23.328;2024-02-15T04:18:50;93167.88;;;2.32;79.05
6198;BME280;3132;42.622;23.328;2024-02-15T04:21:16;93160.16;;;2.32;79.12
6198;BME280;3132;42.622;23.328;2024-02-15T04:23:45;93160.00;;;2.27;79.21
6198;BME280;3132;42.622;23.328;2024-02-15T04:26:10;93153.19;;;2.14;79.60
6198;BME280;3132;42.622;23.328;2024-02-15T04:28:41;93137.97;;;2.13;78.68
6198;BME280;3132;42.622;23.328;2024-02-15T04:31:07;93164.72;;;2.30;79.27
6198;BME280;3132;42.622;23.328;2024-02-15T04:33:37;93158.41;;;2.26;79.57
6198;BME280;3132;42.622;23.328;2024-02-15T04:36:03;93155.22;;;2.30;82.90
6198;BME280;3132;42.622;23.328;2024-02-15T04:38:32;93160.44;;;2.24;79.13
6198;BME280;3132;42.622;23.328;2024-02-15T04:40:58;93140.31;;;1.96;79.31
6198;BME280;3132;42.622;23.328;2024-02-15T04:43:25;93167.66;;;2.15;79.71
6198;BME280;3132;42.622;23.328;2024-02-15T04:45:50;93150.69;;;2.08;79.39
6198;BME280;3132;42.622;23.328;2024-02-15T04:48:16;93157.28;;;2.22;79.44
6198;BME280;3132;42.622;23.328;2024-02-15T04:50:44;93172.66;;;2.28;78.53
6198;BME280;3132;42.622;23.328;2024-02-15T04:53:10;93169.50;;;2.26;79.49
6198;BME280;3132;42.622;23.328;2024-02-15T04:55:36;93182.31;;;2.33;78.82
6198;BME280;3132;42.622;23.328;2024-02-15T04:58:02;93183.47;;;2.19;79.68
6198;BME280;3132;42.622;23.328;2024-02-15T05:00:27;93189.19;;;2.21;79.08
6198;BME280;3132;42.622;23.328;2024-02-15T05:02:53;93177.25;;;2.08;78.77
6198;BME280;3132;42.622;23.328;2024-02-15T05:05:20;93180.44;;;2.04;79.43
6198;BME280;3132;42.622;23.328;2024-02-15T05:07:45;93186.16;;;2.06;79.23
6198;BME280;3132;42.622;23.328;2024-02-15T05:10:11;93208.25;;;2.38;80.88
6198;BME280;3132;42.622;23.328;2024-02-15T05:12:37;93182.44;;;2.02;79.25
6198;BME280;3132;42.622;23.328;2024-02-15T05:15:04;93199.47;;;2.03;80.04
6198;BME280;3132;42.622;23.328;2024-02-15T05:17:37;93210.06;;;2.13;79.56
6198;BME280;3132;42.622;23.328;2024-02-15T05:20:02;93135.13;;;1.60;79.75
6198;BME280;3132;42.622;23.328;2024-02-15T05:22:35;93213.66;;;2.12;79.87
6198;BME280;3132;42.622;23.328;2024-02-15T05:25:01;93203.41;;;2.05;78.76
6198;BME280;3132;42.622;23.328;2024-02-15T05:27:30;93155.13;;;2.01;80.40
6198;BME280;3132;42.622;23.328;2024-02-15T05:29:56;93211.69;;;2.32;78.66
6198;BME280;3132;42.622;23.328;2024-02-15T05:32:21;93195.47;;;2.25;77.95
6198;BME280;3132;42.622;23.328;2024-02-15T05:34:47;93206.50;;;2.68;78.14
6198;BME280;3132;42.622;23.328;2024-02-15T05:37:13;93214.41;;;2.12;77.75
6198;BME280;3132;42.622;23.328;2024-02-15T05:39:39;93195.75;;;2.17;77.73
6198;BME280;3132;42.622;23.328;2024-02-15T05:42:05;93228.59;;;2.21;78.26
6198;BME280;3132;42.622;23.328;2024-02-15T05:44:30;93228.47;;;2.16;79.22
6198;BME280;3132;42.622;23.328;2024-02-15T05:46:56;93231.38;;;2.20;78.98
6198;BME280;3132;42.622;23.328;2024-02-15T05:49:21;93229.50;;;2.09;78.70
6198;BME280;3132;42.622;23.328;2024-02-15T05:51:49;93233.69;;;2.28;78.32
6198;BME280;3132;42.622;23.328;2024-02-15T05:54:14;93233.41;;;2.18;78.36
6198;BME280;3132;42.622;23.328;2024-02-15T05:56:39;93214.78;;;1.98;78.72
6198;BME280;3132;42.622;23.328;2024-02-15T05:59:07;93235.88;;;2.06;78.48
6198;BME280;3132;42.622;23.328;2024-02-15T06:01:39;93238.19;;;2.14;78.16
6198;BME280;3132;42.622;23.328;2024-02-15T06:04:06;93200.41;;;2.08;78.31
6198;BME280;3132;42.622;23.328;2024-02-15T06:06:36;93236.41;;;2.33;77.92
6198;BME280;3132;42.622;23.328;2024-02-15T06:09:03;93235.78;;;2.37;78.89
6198;BME280;3132;42.622;23.328;2024-02-15T06:11:30;93226.38;;;2.25;77.28
6198;BME280;3132;42.622;23.328;2024-02-15T06:13:55;93246.84;;;2.20;77.87
6198;BME280;3132;42.622;23.328;2024-02-15T06:16:21;93239.78;;;2.33;77.32
6198;BME280;3132;42.622;23.328;2024-02-15T06:18:47;93211.03;;;1.94;78.01
6198;BME280;3132;42.622;23.328;2024-02-15T06:21:13;93256.22;;;2.14;78.28
6198;BME280;3132;42.622;23.328;2024-02-15T06:23:38;93261.66;;;2.24;77.95
6198;BME280;3132;42.622;23.328;2024-02-15T06:26:04;93259.50;;;2.46;77.10
6198;BME280;3132;42.622;23.328;2024-02-15T06:28:30;93271.34;;;2.29;77.71
6198;BME280;3132;42.622;23.328;2024-02-15T06:31:14;93259.03;;;2.31;77.10
6198;BME280;3132;42.622;23.328;2024-02-15T06:33:58;93269.75;;;2.28;77.39
6198;BME280;3132;42.622;23.328;2024-02-15T06:36:49;93281.31;;;2.19;77.24
6198;BME280;3132;42.622;23.328;2024-02-15T06:39:34;93288.44;;;2.41;77.58
6198;BME280;3132;42.622;23.328;2024-02-15T06:42:15;93278.69;;;2.25;77.27
6198;BME280;3132;42.622;23.328;2024-02-15T06:44:44;93285.16;;;2.34;77.52
6198;BME280;3132;42.622;23.328;2024-02-15T06:47:09;93283.28;;;2.23;77.37
6198;BME280;3132;42.622;23.328;2024-02-15T06:49:37;93270.19;;;2.25;78.06
6198;BME280;3132;42.622;23.328;2024-02-15T06:52:08;93281.56;;;2.35;76.93
6198;BME280;3132;42.622;23.328;2024-02-15T06:54:38;93277.16;;;2.42;77.46
6198;BME280;3132;42.622;23.328;2024-02-15T06:57:04;93287.41;;;2.67;76.98
6198;BME280;3132;42.622;23.328;2024-02-15T06:59:30;93280.97;;;2.58;76.73
6198;BME280;3132;42.622;23.328;2024-02-15T07:01:57;93282.25;;;2.49;77.34
6198;BME280;3132;42.622;23.328;2024-02-15T07:04:23;93284.84;;;2.67;76.54
6198;BME280;3132;42.622;23.328;2024-02-15T07:06:51;93280.03;;;2.70;76.00
6198;BME280;3132;42.622;23.328;2024-02-15T07:09:17;93280.19;;;2.93;76.16
6198;BME280;3132;42.622;23.328;2024-02-15T07:11:45;93267.16;;;2.88;74.42
6198;BME280;3132;42.622;23.328;2024-02-15T07:14:12;93274.97;;;3.00;74.56
6198;BME280;3132;42.622;23.328;2024-02-15T07:16:38;93276.31;;;2.84;75.31
6198;BME280;3132;42.622;23.328;2024-02-15T07:19:03;93255.63;;;2.55;75.81
6198;BME280;3132;42.622;23.328;2024-02-15T07:21:28;93266.31;;;2.58;76.75
6198;BME280;3132;42.622;23.328;2024-02-15T07:23:55;93260.94;;;2.78;75.76
6198;BME280;3132;42.622;23.328;2024-02-15T07:26:21;93266.16;;;2.71;74.23
6198;BME280;3132;42.622;23.328;2024-02-15T07:28:50;93256.09;;;3.17;76.53
6198;BME280;3132;42.622;23.328;2024-02-15T07:31:17;93274.81;;;2.77;73.98
6198;BME280;3132;42.622;23.328;2024-02-15T07:33:43;93267.78;;;2.84;74.03
6198;BME280;3132;42.622;23.328;2024-02-15T07:36:08;93266.84;;;2.96;73.70
6198;BME280;3132;42.622;23.328;2024-02-15T07:38:34;93270.19;;;3.15;72.56
6198;BME280;3132;42.622;23.328;2024-02-15T07:40:59;93269.19;;;3.34;72.80
6198;BME280;3132;42.622;23.328;2024-02-15T07:43:25;93262.75;;;3.25;72.13
6198;BME280;3132;42.622;23.328;2024-02-15T07:45:51;93264.34;;;3.08;72.27
6198;BME280;3132;42.622;23.328;2024-02-15T07:48:17;93256.69;;;3.01;72.46
6198;BME280;3132;42.622;23.328;2024-02-15T07:50:42;93261.88;;;3.13;74.07
6198;BME280;3132;42.622;23.328;2024-02-15T07:53:09;93269.47;;;3.26;72.84
6198;BME280;3132;42.622;23.328;2024-02-15T07:55:36;93262.81;;;3.18;72.48
6198;BME280;3132;42.622;23.328;2024-02-15T07:58:03;93277.56;;;3.59;72.86
6198;BME280;3132;42.622;23.328;2024-02-15T08:00:28;93264.81;;;3.35;72.01
6198;BME280;3132;42.622;23.328;2024-02-15T08:02:55;93276.34;;;3.62;71.51
6198;BME280;3132;42.622;23.328;2024-02-15T08:05:22;93263.41;;;3.50;72.19
6198;BME280;3132;42.622;23.328;2024-02-15T08:07:47;93278.69;;;3.52;71.62
6198;BME280;3132;42.622;23.328;2024-02-15T08:10:13;93261.56;;;3.39;71.59
6198;BME280;3132;42.622;23.328;2024-02-15T08:12:42;93269.41;;;3.44;72.57
6198;BME280;3132;42.622;23.328;2024-02-15T08:15:08;93259.59;;;3.53;72.64
6198;BME280;3132;42.622;23.328;2024-02-15T08:17:41;93266.59;;;3.75;74.21
6198;BME280;3132;42.622;23.328;2024-02-15T08:20:09;93266.19;;;3.78;72.42
6198;BME280;3132;42.622;23.328;2024-02-15T08:22:35;93266.53;;;3.93;72.59
6198;BME280;3132;42.622;23.328;2024-02-15T08:25:02;93263.97;;;4.05;71.49
6198;BME280;3132;42.622;23.328;2024-02-15T08:27:30;93253.72;;;3.87;70.48
6198;BME280;3132;42.622;23.328;2024-02-15T08:29:57;93268.56;;;3.91;70.68
6198;BME280;3132;42.622;23.328;2024-02-15T08:32:23;93265.53;;;3.94;71.89
6198;BME280;3132;42.622;23.328;2024-02-15T08:34:49;93267.00;;;3.90;71.41
6198;BME280;3132;42.622;23.328;2024-02-15T08:37:15;93257.00;;;3.94;73.18
6198;BME280;3132;42.622;23.328;2024-02-15T08:39:40;93265.91;;;4.09;71.95
6198;BME280;3132;42.622;23.328;2024-02-15T08:42:06;93265.78;;;4.04;71.09
6198;BME280;3132;42.622;23.328;2024-02-15T08:44:31;93222.16;;;3.73;72.38
6198;BME280;3132;42.622;23.328;2024-02-15T08:46:56;93263.31;;;4.09;72.25
6198;BME280;3132;42.622;23.328;2024-02-15T08:49:22;93256.34;;;4.10;71.47
6198;BME280;3132;42.622;23.328;2024-02-15T08:51:47;93268.84;;;4.24;71.94
6198;BME280;3132;42.622;23.328;2024-02-15T08:54:12;93258.50;;;4.47;70.89
6198;BME280;3132;42.622;23.328;2024-02-15T08:56:38;93262.75;;;4.53;70.54
6198;BME280;3132;42.622;23.328;2024-02-15T08:59:03;93261.97;;;4.18;70.50
6198;BME280;3132;42.622;23.328;2024-02-15T09:01:28;93266.31;;;4.06;72.39
6198;BME280;3132;42.622;23.328;2024-02-15T09:03:55;93252.31;;;4.37;70.80
6198;BME280;3132;42.622;23.328;2024-02-15T09:06:20;93265.13;;;4.55;70.30
6198;BME280;3132;42.622;23.328;2024-02-15T09:08:48;93247.03;;;4.43;71.35
6198;BME280;3132;42.622;23.328;2024-02-15T09:11:13;93236.38;;;4.40;71.77
6198;BME280;3132;42.622;23.328;2024-02-15T09:13:39;93246.13;;;4.49;70.36
6198;BME280;3132;42.622;23.328;2024-02-15T09:16:05;93245.78;;;4.34;71.56
6198;BME280;3132;42.622;23.328;2024-02-15T09:18:30;93241.72;;;4.50;70.29
6198;BME280;3132;42.622;23.328;2024-02-15T09:20:55;93232.72;;;4.64;70.16
6198;BME280;3132;42.622;23.328;2024-02-15T09:23:23;93235.53;;;4.85;70.18
6198;BME280;3132;42.622;23.328;2024-02-15T09:25:49;93255.78;;;4.65;69.74
6198;BME280;3132;42.622;23.328;2024-02-15T09:28:17;93251.16;;;4.79;69.38
6198;BME280;3132;42.622;23.328;2024-02-15T09:30:50;93251.84;;;4.63;71.49
6198;BME280;3132;42.622;23.328;2024-02-15T09:33:21;93250.03;;;4.75;70.96
6198;BME280;3132;42.622;23.328;2024-02-15T09:35:46;93236.00;;;4.71;71.02
6198;BME280;3132;42.622;23.328;2024-02-15T09:38:12;93249.13;;;4.81;71.07
6198;BME280;3132;42.622;23.328;2024-02-15T09:40:38;93246.19;;;4.89;70.93
6198;BME280;3132;42.622;23.328;2024-02-15T09:43:03;93242.78;;;5.00;70.40
6198;BME280;3132;42.622;23.328;2024-02-15T09:45:28;93249.09;;;5.04;70.19
6198;BME280;3132;42.622;23.328;2024-02-15T09:47:55;93243.41;;;5.19;70.83
6198;BME280;3132;42.622;23.328;2024-02-15T09:50:27;93248.41;;;4.97;69.38
6198;BME280;3132;42.622;23.328;2024-02-15T09:52:58;93243.47;;;4.95;70.50
6198;BME280;3132;42.622;23.328;2024-02-15T09:55:24;93241.56;;;5.03;70.06
6198;BME280;3132;42.622;23.328;2024-02-15T09:57:50;93234.91;;;5.07;70.15
6198;BME280;3132;42.622;23.328;2024-02-15T10:00:16;93239.25;;;5.18;70.09
6198;BME280;3132;42.622;23.328;2024-02-15T10:02:43;93234.53;;;5.15;69.56
6198;BME280;3132;42.622;23.328;2024-02-15T10:05:12;93231.72;;;5.16;69.67
6198;BME280;3132;42.622;23.328;2024-02-15T10:07:41;93233.16;;;5.24;69.55
6198;BME280;3132;42.622;23.328;2024-02-15T10:10:20;93222.53;;;5.37;69.31
6198;BME280;3132;42.622;23.328;2024-02-15T10:12:46;93221.00;;;5.24;69.56
6198;BME280;3132;42.622;23.328;2024-02-15T10:15:31;93220.47;;;5.39;69.96
6198;BME280;3132;42.622;23.328;2024-02-15T10:17:58;93217.41;;;5.70;69.66
6198;BME280;3132;42.622;23.328;2024-02-15T10:20:26;93205.75;;;5.56;70.36
6198;BME280;3132;42.622;23.328;2024-02-15T10:25:26;93201.63;;;5.55;70.83
6198;BME280;3132;42.622;23.328;2024-02-15T10:28:01;93204.13;;;5.50;69.53
6198;BME280;3132;42.622;23.328;2024-02-15T10:30:26;93202.09;;;5.68;69.91
6198;BME280;3132;42.622;23.328;2024-02-15T10:32:52;93186.88;;;5.72;69.58
6198;BME280;3132;42.622;23.328;2024-02-15T10:35:21;93194.38;;;5.85;68.60
6198;BME280;3132;42.622;23.328;2024-02-15T10:37:51;93202.63;;;5.82;68.34
6198;BME280;3132;42.622;23.328;2024-02-15T10:40:22;93196.59;;;5.93;68.90
6198;BME280;3132;42.622;23.328;2024-02-15T10:42:51;93192.31;;;5.87;68.93
6198;BME280;3132;42.622;23.328;2024-02-15T10:45:16;93189.28;;;5.90;69.06
6198;BME280;3132;42.622;23.328;2024-02-15T10:47:45;93200.63;;;5.72;69.39
6198;BME280;3132;42.622;23.328;2024-02-15T10:50:13;93196.44;;;6.16;70.08
6198;BME280;3132;42.622;23.328;2024-02-15T10:52:45;93186.66;;;6.23;68.90
6198;BME280;3132;42.622;23.328;2024-02-15T10:55:17;93195.94;;;6.19;67.80
6198;BME280;3132;42.622;23.328;2024-02-15T10:57:49;93193.13;;;6.20;67.89
6198;BME280;3132;42.622;23.328;2024-02-15T11:00:19;93186.97;;;6.26;68.87
6198;BME280;3132;42.622;23.328;2024-02-15T11:03:00;93172.94;;;6.22;67.87
6198;BME280;3132;42.622;23.328;2024-02-15T11:05:34;93182.63;;;6.32;68.18
6198;BME280;3132;42.622;23.328;2024-02-15T11:08:09;93180.19;;;6.42;68.17
6198;BME280;3132;42.622;23.328;2024-02-15T11:10:36;93159.41;;;6.20;68.30
6198;BME280;3132;42.622;23.328;2024-02-15T11:13:03;93173.63;;;6.34;68.65
6198;BME280;3132;42.622;23.328;2024-02-15T11:18:05;93167.06;;;6.70;66.86
6198;BME280;3132;42.622;23.328;2024-02-15T11:23:00;93163.34;;;6.61;66.18
6198;BME280;3132;42.622;23.328;2024-02-15T11:25:33;93177.16;;;6.88;65.55
6198;BME280;3132;42.622;23.328;2024-02-15T11:30:49;93171.72;;;6.68;66.84
6198;BME280;3132;42.622;23.328;2024-02-15T11:36:08;93172.91;;;7.04;67.97
6198;BME280;3132;42.622;23.328;2024-02-15T11:38:35;93178.00;;;6.94;64.89
6198;BME280;3132;42.622;23.328;2024-02-15T11:41:05;93164.66;;;6.85;64.94
6198;BME280;3132;42.622;23.328;2024-02-15T11:46:08;93172.94;;;7.30;64.36
6198;BME280;3132;42.622;23.328;2024-02-15T11:48:36;93169.25;;;7.00;64.20
6198;BME280;3132;42.622;23.328;2024-02-15T11:51:04;93170.94;;;6.89;64.03
6198;BME280;3132;42.622;23.328;2024-02-15T11:53:31;93162.44;;;6.94;64.01
6198;BME280;3132;42.622;23.328;2024-02-15T11:56:01;93174.50;;;6.83;64.00
6198;BME280;3132;42.622;23.328;2024-02-15T11:58:27;93155.03;;;7.07;63.65
6198;BME280;3132;42.622;23.328;2024-02-15T12:01:17;93167.13;;;7.18;64.17
6198;BME280;3132;42.622;23.328;2024-02-15T12:04:02;93163.31;;;7.04;63.65
6198;BME280;3132;42.622;23.328;2024-02-15T12:06:46;93146.56;;;6.90;63.59
6198;BME280;3132;42.622;23.328;2024-02-15T12:09:30;93154.69;;;7.20;64.44
6198;BME280;3132;42.622;23.328;2024-02-15T12:12:14;93153.63;;;7.21;63.11
6198;BME280;3132;42.622;23.328;2024-02-15T12:14:59;93155.00;;;7.29;62.83
6198;BME280;3132;42.622;23.328;2024-02-15T12:17:44;93153.16;;;7.24;62.41
6198;BME280;3132;42.622;23.328;2024-02-15T12:20:28;93153.06;;;7.41;63.29
6198;BME280;3132;42.622;23.328;2024-02-15T12:22:54;93142.94;;;7.44;61.41
6198;BME280;3132;42.622;23.328;2024-02-15T12:25:20;93157.78;;;7.44;61.52
6198;BME280;3132;42.622;23.328;2024-02-15T12:27:54;93149.63;;;7.35;63.36
6198;BME280;3132;42.622;23.328;2024-02-15T12:30:20;93147.47;;;7.27;62.19
6198;BME280;3132;42.622;23.328;2024-02-15T12:32:49;93149.25;;;7.53;61.07
6198;BME280;3132;42.622;23.328;2024-02-15T12:35:22;93148.38;;;7.43;62.32
6198;BME280;3132;42.622;23.328;2024-02-15T12:37:49;93149.94;;;7.39;61.90
6198;BME280;3132;42.622;23.328;2024-02-15T12:40:37;93148.56;;;7.31;61.76
6198;BME280;3132;42.622;23.328;2024-02-15T12:43:07;93150.81;;;7.49;61.74
6198;BME280;3132;42.622;23.328;2024-02-15T12:45:36;93119.44;;;7.29;61.90
6198;BME280;3132;42.622;23.328;2024-02-15T12:48:06;93149.63;;;7.35;61.85
6198;BME280;3132;42.622;23.328;2024-02-15T12:50:32;93138.41;;;7.56;60.81
6198;BME280;3132;42.622;23.328;2024-02-15T12:52:59;93131.56;;;7.50;61.63
6198;BME280;3132;42.622;23.328;2024-02-15T12:55:29;93149.31;;;7.32;61.44
6198;BME280;3132;42.622;23.328;2024-02-15T12:57:56;93125.00;;;7.43;61.63
6198;BME280;3132;42.622;23.328;2024-02-15T13:00:23;93133.66;;;7.48;61.33
6198;BME280;3132;42.622;23.328;2024-02-15T13:02:54;93141.00;;;7.30;62.23
6198;BME280;3132;42.622;23.328;2024-02-15T13:05:21;93134.72;;;7.26;62.04
6198;BME280;3132;42.622;23.328;2024-02-15T13:07:48;93140.72;;;7.26;62.10
6198;BME280;3132;42.622;23.328;2024-02-15T13:10:13;93128.97;;;7.45;62.88
6198;BME280;3132;42.622;23.328;2024-02-15T13:12:43;93140.00;;;7.62;62.59
6198;BME280;3132;42.622;23.328;2024-02-15T13:15:15;93129.13;;;7.65;60.96
6198;BME280;3132;42.622;23.328;2024-02-15T13:17:48;93142.19;;;7.75;61.51
6198;BME280;3132;42.622;23.328;2024-02-15T13:20:14;93094.34;;;7.40;60.99
6198;BME280;3132;42.622;23.328;2024-02-15T13:22:43;93096.25;;;7.49;60.87
6198;BME280;3132;42.622;23.328;2024-02-15T13:25:13;93131.66;;;7.60;61.52
6198;BME280;3132;42.622;23.328;2024-02-15T13:27:42;93143.72;;;7.71;61.28
6198;BME280;3132;42.622;23.328;2024-02-15T13:30:08;93130.44;;;7.68;61.96
6198;BME280;3132;42.622;23.328;2024-02-15T13:32:38;93122.34;;;7.64;62.67
6198;BME280;3132;42.622;23.328;2024-02-15T13:35:05;93129.28;;;7.54;61.82
6198;BME280;3132;42.622;23.328;2024-02-15T13:37:48;93133.03;;;7.68;61.95
6198;BME280;3132;42.622;23.328;2024-02-15T13:40:14;93134.69;;;7.79;62.38
6198;BME280;3132;42.622;23.328;2024-02-15T13:42:47;93132.41;;;7.87;61.79
6198;BME280;3132;42.622;23.328;2024-02-15T13:45:57;93135.03;;;7.92;61.40
6198;BME280;3132;42.622;23.328;2024-02-15T13:48:16;93114.59;;;7.69;61.30